createdAt,value
2023-05-14T00:00:46.988Z,11.4
2023-05-14T00:20:47.507Z,11.5
2023-05-14T00:40:50.061Z,11.5
2023-05-14T01:00:46.996Z,11.3
2023-05-14T01:20:49.942Z,11.2
2023-05-14T01:40:47.278Z,11.2
2023-05-14T02:00:46.907Z,11.2
2023-05-14T02:20:47.817Z,11.2
2023-05-14T02:40:47.298Z,11.3
2023-05-14T03:00:53.813Z,11.3
2023-05-14T03:20:55.458Z,11.3
2023-05-14T03:40:50.318Z,11.3
2023-05-14T04:00:51.476Z,11.4
2023-05-14T04:21:09.250Z,11.2
2023-05-14T04:41:09.773Z,11.3
2023-05-14T05:01:08.646Z,11.2
2023-05-14T05:21:09.938Z,10.9
2023-05-14T05:41:08.938Z,10.8
2023-05-14T06:01:09.349Z,10.8
2023-05-14T06:21:16.076Z,11.2
2023-05-14T06:41:06.784Z,11.2
2023-05-14T07:01:14.425Z,11.3
2023-05-14T07:21:08.385Z,11.9
2023-05-14T07:41:09.422Z,11.8
2023-05-14T08:01:14.440Z,12.4
2023-05-14T08:21:08.631Z,12.8
2023-05-14T08:41:05.706Z,13
2023-05-14T09:01:12.526Z,13.3
2023-05-14T09:21:09.315Z,13.9
2023-05-14T09:41:11.774Z,14.5
2023-05-14T10:01:07.874Z,14.7
2023-05-14T10:21:15.852Z,14.9
2023-05-14T10:41:14.288Z,14.8
2023-05-14T11:01:08.539Z,14.8
2023-05-14T11:21:17.523Z,15.5
2023-05-14T11:41:13.988Z,15.8
2023-05-14T12:01:10.625Z,15.7
2023-05-14T12:21:09.275Z,16.1
2023-05-14T12:41:12.542Z,16.1
2023-05-14T13:01:06.342Z,16.1
2023-05-14T13:21:15.987Z,17.1
2023-05-14T13:41:11.156Z,17
2023-05-14T14:01:15.301Z,16.3
2023-05-14T14:21:08.893Z,16.3
2023-05-14T14:41:07.548Z,17.7
2023-05-14T15:01:08.879Z,17.7
2023-05-14T15:21:07.559Z,17
2023-05-14T15:41:07.512Z,17.4
2023-05-14T16:01:14.179Z,17.1
2023-05-14T16:21:07.582Z,17.1
2023-05-14T16:41:07.243Z,16.6
2023-05-14T17:01:10.754Z,15.5
2023-05-14T17:21:08.997Z,15.6
2023-05-14T17:41:09.870Z,14.8
2023-05-14T18:01:07.717Z,14.8
2023-05-14T18:21:11.962Z,14.1
2023-05-14T18:41:06.613Z,14.1
2023-05-14T19:00:45.731Z,13.8
2023-05-14T19:20:46.932Z,13.5
2023-05-14T19:40:46.308Z,13.3
2023-05-14T20:00:46.638Z,13.2
2023-05-14T20:20:52.484Z,13
2023-05-14T20:40:46.583Z,12.8
2023-05-14T21:00:46.733Z,12.7
2023-05-14T21:20:46.685Z,12.5
2023-05-14T21:40:49.795Z,12.5
2023-05-14T22:00:55.724Z,12.2
2023-05-14T22:20:47.982Z,12.1
2023-05-14T22:40:46.953Z,11.9
2023-05-14T23:00:47.509Z,11.7
2023-05-14T23:20:48.721Z,11.6
2023-05-14T23:40:47.562Z,11.6
